createdAt,value
2023-03-21T00:02:33.543Z,10.60
2023-03-21T00:05:20.757Z,10.50
2023-03-21T00:08:07.450Z,10.50
2023-03-21T00:10:58.313Z,10.50
2023-03-21T00:13:45.071Z,10.50
2023-03-21T00:16:34.386Z,10.40
2023-03-21T00:19:26.513Z,10.40
2023-03-21T00:22:13.385Z,10.50
2023-03-21T00:24:59.642Z,10.50
2023-03-21T00:28:05.192Z,10.50
2023-03-21T00:30:59.179Z,10.50
2023-03-21T00:33:45.951Z,10.60
2023-03-21T00:36:33.794Z,10.60
2023-03-21T00:39:20.167Z,10.60
2023-03-21T00:42:06.674Z,10.60
2023-03-21T00:44:53.435Z,10.70
2023-03-21T00:47:39.993Z,10.70
2023-03-21T00:50:26.940Z,10.70
2023-03-21T00:53:15.627Z,10.70
2023-03-21T00:56:01.934Z,10.70
2023-03-21T00:58:53.234Z,10.70
2023-03-21T01:01:39.737Z,10.70
2023-03-21T01:04:26.977Z,10.70
2023-03-21T01:07:13.542Z,10.70
2023-03-21T01:10:01.503Z,10.70
2023-03-21T01:12:51.712Z,10.70
2023-03-21T01:15:43.585Z,10.70
2023-03-21T01:18:31.722Z,10.60
2023-03-21T01:21:18.862Z,10.70
2023-03-21T01:24:05.833Z,10.60
2023-03-21T01:26:53.679Z,10.60
2023-03-21T01:29:40.370Z,10.60
2023-03-21T01:32:26.861Z,10.60
2023-03-21T01:35:13.232Z,10.60
2023-03-21T01:37:59.843Z,10.60
2023-03-21T01:40:47.472Z,10.60
2023-03-21T01:43:37.355Z,10.50
2023-03-21T01:46:49.360Z,10.50
2023-03-21T01:49:46.040Z,10.50
2023-03-21T01:52:38.362Z,10.50
2023-03-21T01:55:26.825Z,10.60
2023-03-21T01:58:18.224Z,10.50
2023-03-21T02:01:07.876Z,10.50
2023-03-21T02:03:55.727Z,10.50
2023-03-21T02:06:51.306Z,10.60
2023-03-21T02:09:40.352Z,10.60
2023-03-21T02:12:29.435Z,10.60
2023-03-21T02:15:17.058Z,10.50
2023-03-21T02:18:09.524Z,10.50
2023-03-21T02:21:24.525Z,10.50
2023-03-21T02:24:59.534Z,10.50
2023-03-21T02:27:53.496Z,10.50
2023-03-21T02:30:57.765Z,10.50
2023-03-21T02:34:25.889Z,10.50
2023-03-21T02:37:28.942Z,10.50
2023-03-21T02:40:27.059Z,10.50
2023-03-21T02:43:23.726Z,10.50
2023-03-21T02:46:17.196Z,10.60
2023-03-21T02:49:12.606Z,10.50
2023-03-21T02:52:12.258Z,10.50
2023-03-21T02:55:06.580Z,10.50
2023-03-21T02:58:06.890Z,10.50
2023-03-21T03:00:57.449Z,10.50
2023-03-21T03:03:43.906Z,10.40
2023-03-21T03:06:38.906Z,10.50
2023-03-21T03:09:40.109Z,10.50
2023-03-21T03:12:40.593Z,10.50
2023-03-21T03:15:38.642Z,10.50
2023-03-21T03:18:32.902Z,10.50
2023-03-21T03:21:23.159Z,10.50
2023-03-21T03:24:27.613Z,10.50
2023-03-21T03:27:22.697Z,10.50
2023-03-21T03:30:17.154Z,10.50
2023-03-21T03:33:08.529Z,10.50
2023-03-21T03:36:04.989Z,10.40
2023-03-21T03:38:54.492Z,10.40
2023-03-21T03:44:55.909Z,10.40
2023-03-21T03:47:56.835Z,10.30
2023-03-21T03:50:48.852Z,10.30
2023-03-21T03:53:40.090Z,10.30
2023-03-21T03:56:29.124Z,10.30
2023-03-21T03:59:19.335Z,10.30
2023-03-21T04:02:09.790Z,10.30
2023-03-21T04:04:58.330Z,10.20
2023-03-21T04:07:46.145Z,10.20
2023-03-21T04:10:32.800Z,10.30
2023-03-21T04:13:19.125Z,10.20
2023-03-21T04:16:06.954Z,10.20
2023-03-21T04:18:53.646Z,10.20
2023-03-21T04:21:41.539Z,10.20
2023-03-21T04:24:33.342Z,10.20
2023-03-21T04:27:20.033Z,10.20
2023-03-21T04:30:07.683Z,10.20
2023-03-21T04:32:57.046Z,10.20
2023-03-21T04:35:45.522Z,10.20
2023-03-21T04:38:33.969Z,10.20
2023-03-21T04:41:20.741Z,10.20
2023-03-21T04:44:07.675Z,10.20
2023-03-21T04:46:57.274Z,10.20
2023-03-21T04:49:43.765Z,10.20
2023-03-21T04:52:30.726Z,10.20
2023-03-21T04:55:21.612Z,10.20
2023-03-21T04:58:08.084Z,10.20
2023-03-21T05:00:54.714Z,10.20
2023-03-21T05:03:41.473Z,10.20
2023-03-21T05:06:28.788Z,10.20
2023-03-21T05:09:18.145Z,10.20
2023-03-21T05:12:06.537Z,10.20
2023-03-21T05:14:55.245Z,10.20
2023-03-21T05:17:42.646Z,10.20
2023-03-21T05:20:28.994Z,10.20
2023-03-21T05:23:18.433Z,10.20
2023-03-21T05:26:06.961Z,10.20
2023-03-21T05:28:54.622Z,10.20
2023-03-21T05:31:41.242Z,10.30
2023-03-21T05:34:28.625Z,10.30
2023-03-21T05:37:15.500Z,10.30
2023-03-21T05:40:02.137Z,10.40
2023-03-21T05:42:49.460Z,10.40
2023-03-21T05:45:37.692Z,10.40
2023-03-21T05:48:24.506Z,10.40
2023-03-21T05:51:11.171Z,10.40
2023-03-21T05:53:57.637Z,10.40
2023-03-21T05:56:44.143Z,10.40
2023-03-21T05:59:30.794Z,10.40
2023-03-21T06:02:18.721Z,10.40
2023-03-21T06:05:05.315Z,10.40
2023-03-21T06:07:51.945Z,10.40
2023-03-21T06:10:38.280Z,10.40
2023-03-21T06:13:24.657Z,10.40
2023-03-21T06:16:11.307Z,10.40
2023-03-21T06:18:59.624Z,10.50
2023-03-21T06:21:46.226Z,10.50
2023-03-21T06:24:34.501Z,10.60
2023-03-21T06:27:27.900Z,10.60
2023-03-21T06:30:15.827Z,10.60
2023-03-21T06:33:02.665Z,10.60
2023-03-21T06:35:54.076Z,10.60
2023-03-21T06:38:40.430Z,10.60
2023-03-21T06:41:26.852Z,10.70
2023-03-21T06:44:16.268Z,10.70
2023-03-21T06:47:02.850Z,10.80
2023-03-21T06:49:49.208Z,10.80
2023-03-21T06:52:37.190Z,10.80
2023-03-21T06:55:26.758Z,10.90
2023-03-21T06:58:13.371Z,10.80
2023-03-21T07:01:00.473Z,11.00
2023-03-21T07:03:47.326Z,11.10
2023-03-21T07:06:34.384Z,11.10
2023-03-21T07:09:24.576Z,11.30
2023-03-21T07:12:13.420Z,11.30
2023-03-21T07:14:59.894Z,11.40
2023-03-21T07:17:46.379Z,11.40
2023-03-21T07:20:33.079Z,11.50
2023-03-21T07:23:20.378Z,11.50
2023-03-21T07:26:09.216Z,11.70
2023-03-21T07:28:55.820Z,11.80
2023-03-21T07:31:42.390Z,12.20
2023-03-21T07:34:33.071Z,12.50
2023-03-21T07:37:20.223Z,12.70
2023-03-21T07:40:10.414Z,13.00
2023-03-21T07:42:58.226Z,13.40
2023-03-21T07:45:44.974Z,13.90
2023-03-21T07:48:31.839Z,13.90
2023-03-21T07:51:18.342Z,14.00
2023-03-21T07:54:05.405Z,13.90
2023-03-21T07:56:51.981Z,13.90
2023-03-21T07:59:39.957Z,14.00
2023-03-21T08:02:27.057Z,13.90
2023-03-21T08:05:13.664Z,13.90
2023-03-21T08:08:00.077Z,13.70
2023-03-21T08:10:46.682Z,13.60
2023-03-21T08:13:33.398Z,13.40
2023-03-21T08:16:21.613Z,13.20
2023-03-21T08:19:08.188Z,13.20
2023-03-21T08:21:54.665Z,13.10
2023-03-21T08:24:41.200Z,13.10
2023-03-21T08:27:27.550Z,13.10
2023-03-21T08:30:16.505Z,13.10
2023-03-21T08:33:05.746Z,13.10
2023-03-21T08:35:52.292Z,13.30
2023-03-21T08:38:39.529Z,13.50
2023-03-21T08:41:26.292Z,13.80
2023-03-21T08:44:13.161Z,13.90
2023-03-21T08:46:59.515Z,14.10
2023-03-21T08:49:47.314Z,14.10
2023-03-21T08:52:34.257Z,14.10
2023-03-21T08:55:21.323Z,14.20
2023-03-21T08:58:08.140Z,14.20
2023-03-21T09:00:54.984Z,14.40
2023-03-21T09:03:41.633Z,14.30
2023-03-21T09:06:30.029Z,14.30
2023-03-21T09:09:16.726Z,14.20
2023-03-21T09:12:03.348Z,14.20
2023-03-21T09:14:50.081Z,14.20
2023-03-21T09:17:42.133Z,14.30
2023-03-21T09:20:32.908Z,14.60
2023-03-21T09:23:21.720Z,14.80
2023-03-21T09:26:11.402Z,15.40
2023-03-21T09:28:58.757Z,16.10
2023-03-21T09:31:46.693Z,16.90
2023-03-21T09:34:33.586Z,17.40
2023-03-21T09:37:21.177Z,18.00
2023-03-21T09:40:17.264Z,18.50
2023-03-21T09:43:13.157Z,18.70
2023-03-21T09:46:06.446Z,19.10
2023-03-21T09:48:59.775Z,18.80
2023-03-21T09:51:52.869Z,18.90
2023-03-21T09:54:43.008Z,18.80
2023-03-21T09:57:35.146Z,18.80
2023-03-21T10:00:29.625Z,18.90
2023-03-21T10:03:23.829Z,19.10
2023-03-21T10:06:15.752Z,19.10
2023-03-21T10:09:07.379Z,18.90
2023-03-21T10:11:58.163Z,18.80
2023-03-21T10:14:49.053Z,18.60
2023-03-21T10:17:41.071Z,18.50
2023-03-21T10:20:30.565Z,18.60
2023-03-21T10:23:19.864Z,18.50
2023-03-21T10:26:10.288Z,18.50
2023-03-21T10:29:01.936Z,18.60
2023-03-21T10:31:51.590Z,18.60
2023-03-21T10:34:43.058Z,18.40
2023-03-21T10:37:29.755Z,18.40
2023-03-21T10:40:17.664Z,18.30
2023-03-21T10:43:30.915Z,18.30
2023-03-21T10:46:21.145Z,18.20
2023-03-21T10:49:09.872Z,18.20
2023-03-21T10:51:59.640Z,18.10
2023-03-21T10:54:48.343Z,18.30
2023-03-21T10:57:37.982Z,18.30
2023-03-21T11:00:29.140Z,18.20
2023-03-21T11:03:24.281Z,18.40
2023-03-21T11:06:17.758Z,18.20
2023-03-21T11:09:09.598Z,18.10
2023-03-21T11:12:02.954Z,18.10
2023-03-21T11:14:50.904Z,18.20
2023-03-21T11:17:37.520Z,18.20
2023-03-21T11:20:24.596Z,18.20
2023-03-21T11:23:14.374Z,18.50
2023-03-21T11:26:02.422Z,18.50
2023-03-21T11:28:49.088Z,18.50
2023-03-21T11:31:40.417Z,18.50
2023-03-21T11:34:44.571Z,18.60
2023-03-21T11:37:34.260Z,18.80
2023-03-21T11:40:28.454Z,18.70
2023-03-21T11:43:29.411Z,18.70
2023-03-21T11:46:15.925Z,18.70
2023-03-21T11:49:03.454Z,18.80
2023-03-21T11:51:57.800Z,18.90
2023-03-21T11:55:11.723Z,18.90
2023-03-21T11:58:14.855Z,18.70
2023-03-21T12:01:10.968Z,18.70
2023-03-21T12:04:08.637Z,18.70
2023-03-21T12:07:01.465Z,18.70
2023-03-21T12:09:55.225Z,18.90
2023-03-21T12:12:50.654Z,19.00
2023-03-21T12:15:44.522Z,19.10
2023-03-21T12:18:46.669Z,19.20
2023-03-21T12:21:40.910Z,19.40
2023-03-21T12:24:34.507Z,19.20
2023-03-21T12:27:34.368Z,19.10
2023-03-21T12:30:45.138Z,19.10
2023-03-21T12:33:54.386Z,19.30
2023-03-21T12:36:56.247Z,19.20
2023-03-21T12:39:44.758Z,19.00
2023-03-21T12:42:51.949Z,19.10
2023-03-21T12:45:47.233Z,19.10
2023-03-21T12:48:47.392Z,19.10
2023-03-21T12:51:37.709Z,18.90
2023-03-21T12:54:29.851Z,18.70
2023-03-21T12:57:21.178Z,18.70
2023-03-21T13:00:17.568Z,18.70
2023-03-21T13:03:10.110Z,18.70
2023-03-21T13:06:01.559Z,18.70
2023-03-21T13:08:53.724Z,18.60
2023-03-21T13:11:40.794Z,18.50
2023-03-21T13:14:31.737Z,18.40
2023-03-21T13:17:26.545Z,18.50
2023-03-21T13:20:21.373Z,18.30
2023-03-21T13:23:10.048Z,18.30
2023-03-21T13:25:59.112Z,18.30
2023-03-21T13:28:49.176Z,18.40
2023-03-21T13:31:51.061Z,18.40
2023-03-21T13:34:41.548Z,18.30
2023-03-21T13:37:33.333Z,18.30
2023-03-21T13:40:26.972Z,18.20
2023-03-21T13:43:33.905Z,18.20
2023-03-21T13:46:52.220Z,18.20
2023-03-21T13:49:39.892Z,18.00
2023-03-21T13:52:28.673Z,18.00
2023-03-21T13:55:20.812Z,18.00
2023-03-21T13:58:33.334Z,18.00
2023-03-21T14:01:28.923Z,18.00
2023-03-21T14:04:18.249Z,17.90
2023-03-21T14:07:09.545Z,17.90
2023-03-21T14:09:59.980Z,17.80
2023-03-21T14:12:47.701Z,17.60
2023-03-21T14:15:53.116Z,17.60
2023-03-21T14:18:59.548Z,17.50
2023-03-21T14:21:53.346Z,17.50
2023-03-21T14:24:41.182Z,17.50
2023-03-21T14:27:31.938Z,17.50
2023-03-21T14:30:24.489Z,17.50
2023-03-21T14:33:18.844Z,17.50
2023-03-21T14:36:08.848Z,17.50
2023-03-21T14:38:59.381Z,17.50
2023-03-21T14:41:49.705Z,17.50
2023-03-21T14:44:53.396Z,17.60
2023-03-21T14:47:40.182Z,17.60
2023-03-21T14:50:35.884Z,17.60
2023-03-21T14:53:26.820Z,17.60
2023-03-21T14:56:25.203Z,17.60
2023-03-21T14:59:15.783Z,17.50
2023-03-21T15:02:06.069Z,17.50
2023-03-21T15:04:55.285Z,17.40
2023-03-21T15:07:43.615Z,17.50
2023-03-21T15:10:33.524Z,17.40
2023-03-21T15:13:23.422Z,17.30
2023-03-21T15:16:12.345Z,17.20
2023-03-21T15:19:00.177Z,17.20
2023-03-21T15:21:49.936Z,17.20
2023-03-21T15:24:42.306Z,17.20
2023-03-21T15:27:32.670Z,17.20
2023-03-21T15:30:24.955Z,17.20
2023-03-21T15:33:13.656Z,17.20
2023-03-21T15:36:02.688Z,17.30
2023-03-21T15:38:51.070Z,17.20
2023-03-21T15:41:46.156Z,17.10
2023-03-21T15:44:35.664Z,17.20
2023-03-21T15:47:42.700Z,17.10
2023-03-21T15:50:35.918Z,17.10
2023-03-21T15:53:25.386Z,17.00
2023-03-21T15:56:16.083Z,17.00
2023-03-21T15:59:06.480Z,16.90
2023-03-21T16:01:53.044Z,16.90
2023-03-21T16:04:58.109Z,16.80
2023-03-21T16:07:47.189Z,16.70
2023-03-21T16:10:36.849Z,16.70
2023-03-21T16:13:23.992Z,16.60
2023-03-21T16:16:17.845Z,16.50
2023-03-21T16:19:07.118Z,16.40
2023-03-21T16:21:57.238Z,16.30
2023-03-21T16:24:44.055Z,16.30
2023-03-21T16:27:30.942Z,16.30
2023-03-21T16:30:20.058Z,16.20
2023-03-21T16:33:13.340Z,16.20
2023-03-21T16:36:00.725Z,16.10
2023-03-21T16:38:49.520Z,16.10
2023-03-21T16:41:36.267Z,16.00
2023-03-21T16:44:22.638Z,16.00
2023-03-21T16:47:17.169Z,16.00
2023-03-21T16:50:22.646Z,15.90
2023-03-21T16:53:09.360Z,15.90
2023-03-21T16:55:56.308Z,15.80
2023-03-21T16:58:43.034Z,15.80
2023-03-21T17:01:30.017Z,15.70
2023-03-21T17:04:17.980Z,15.70
2023-03-21T17:07:14.172Z,15.60
2023-03-21T17:10:01.037Z,15.60
2023-03-21T17:12:47.529Z,15.20
2023-03-21T17:15:34.052Z,15.10
2023-03-21T17:18:20.501Z,15.10
2023-03-21T17:21:13.389Z,15.10
2023-03-21T17:24:01.241Z,14.90
2023-03-21T17:26:47.582Z,14.80
2023-03-21T17:29:34.023Z,14.80
2023-03-21T17:32:20.412Z,14.60
2023-03-21T17:35:09.048Z,14.40
2023-03-21T17:37:58.343Z,14.40
2023-03-21T17:40:48.020Z,14.50
2023-03-21T17:43:35.844Z,14.40
2023-03-21T17:46:26.836Z,14.40
2023-03-21T17:49:15.852Z,14.30
2023-03-21T17:52:02.094Z,14.30
2023-03-21T17:54:48.669Z,14.30
2023-03-21T17:57:37.644Z,14.20
2023-03-21T18:00:26.455Z,14.20
2023-03-21T18:03:13.334Z,14.10
2023-03-21T18:06:00.608Z,14.00
2023-03-21T18:08:48.120Z,13.90
2023-03-21T18:11:34.637Z,13.90
2023-03-21T18:14:27.871Z,13.90
2023-03-21T18:17:18.433Z,13.90
2023-03-21T18:20:09.877Z,13.80
2023-03-21T18:22:58.745Z,13.80
2023-03-21T18:25:45.257Z,13.70
2023-03-21T18:28:31.901Z,13.60
2023-03-21T18:31:21.572Z,13.60
2023-03-21T18:34:10.587Z,13.50
2023-03-21T18:36:56.936Z,13.50
2023-03-21T18:39:44.488Z,13.30
2023-03-21T18:42:31.237Z,13.30
2023-03-21T18:45:19.410Z,13.30
2023-03-21T18:48:07.733Z,13.20
2023-03-21T18:50:54.191Z,13.10
2023-03-21T18:53:40.784Z,13.10
2023-03-21T18:57:20.060Z,13.00
2023-03-21T18:59:35.250Z,13.00
2023-03-21T19:02:22.199Z,12.90
2023-03-21T19:05:11.018Z,12.80
2023-03-21T19:07:57.477Z,12.70
2023-03-21T19:10:45.168Z,12.70
2023-03-21T19:13:32.178Z,12.70
2023-03-21T19:16:19.016Z,12.70
2023-03-21T19:19:06.709Z,12.80
2023-03-21T19:21:54.516Z,12.70
2023-03-21T19:24:41.348Z,12.80
2023-03-21T19:27:28.316Z,12.70
2023-03-21T19:30:16.078Z,12.70
2023-03-21T19:33:02.773Z,12.70
2023-03-21T19:35:50.307Z,12.70
2023-03-21T19:38:38.381Z,12.70
2023-03-21T19:41:25.426Z,12.70
2023-03-21T19:44:12.301Z,12.70
2023-03-21T19:46:59.029Z,12.70
2023-03-21T19:52:52.808Z,12.70
2023-03-21T19:55:40.821Z,12.70
2023-03-21T19:58:27.654Z,12.70
2023-03-21T20:01:14.390Z,12.70
2023-03-21T20:04:00.930Z,12.70
2023-03-21T20:06:47.739Z,12.70
2023-03-21T20:09:52.946Z,12.60
2023-03-21T20:12:42.180Z,12.60
2023-03-21T20:15:30.637Z,12.60
2023-03-21T20:18:17.439Z,12.60
2023-03-21T20:21:04.448Z,12.50
2023-03-21T20:23:51.018Z,12.50
2023-03-21T20:26:37.401Z,12.50
2023-03-21T20:32:32.229Z,12.40
2023-03-21T20:35:31.413Z,12.40
2023-03-21T20:38:26.118Z,12.40
2023-03-21T20:41:12.804Z,12.30
2023-03-21T20:47:08.633Z,12.40
2023-03-21T20:49:56.697Z,12.30
2023-03-21T20:53:01.122Z,12.20
2023-03-21T20:55:50.056Z,12.10
2023-03-21T20:59:01.718Z,12.10
2023-03-21T21:01:46.911Z,12.10
2023-03-21T21:04:49.885Z,12.00
2023-03-21T21:07:41.776Z,12.00
2023-03-21T21:10:28.809Z,12.10
2023-03-21T21:13:15.172Z,12.10
2023-03-21T21:16:02.764Z,12.10
2023-03-21T21:18:49.412Z,12.10
2023-03-21T21:21:37.473Z,12.00
2023-03-21T21:24:24.306Z,12.10
2023-03-21T21:27:13.914Z,12.00
2023-03-21T21:30:01.817Z,12.10
2023-03-21T21:32:49.279Z,12.10
2023-03-21T21:35:37.041Z,12.10
2023-03-21T21:38:24.896Z,12.00
2023-03-21T21:41:18.564Z,12.00
2023-03-21T21:44:07.049Z,11.90
2023-03-21T21:46:53.577Z,11.90
2023-03-21T21:49:40.107Z,11.90
2023-03-21T21:52:27.025Z,11.90
2023-03-21T21:55:17.862Z,11.90
2023-03-21T21:58:05.009Z,11.80
2023-03-21T22:00:51.852Z,11.80
2023-03-21T22:03:41.170Z,11.80
2023-03-21T22:06:27.724Z,11.80
2023-03-21T22:09:14.084Z,11.80
2023-03-21T22:12:01.852Z,11.80
2023-03-21T22:14:48.148Z,11.80
2023-03-21T22:17:35.127Z,11.80
2023-03-21T22:20:22.353Z,11.90
2023-03-21T22:23:08.922Z,11.80
2023-03-21T22:25:55.803Z,11.70
2023-03-21T22:28:43.739Z,11.70
2023-03-21T22:31:31.648Z,11.70
2023-03-21T22:34:18.221Z,11.70
2023-03-21T22:37:04.845Z,11.60
2023-03-21T22:39:51.135Z,11.50
2023-03-21T22:42:39.602Z,11.60
2023-03-21T22:45:27.382Z,11.50
2023-03-21T22:48:14.068Z,11.50
2023-03-21T22:51:01.634Z,11.40
2023-03-21T22:53:48.195Z,11.50
2023-03-21T22:56:34.677Z,11.50
2023-03-21T22:59:21.040Z,11.50
2023-03-21T23:02:09.985Z,11.50
2023-03-21T23:04:56.742Z,11.30
2023-03-21T23:07:43.221Z,11.30
2023-03-21T23:10:29.740Z,11.30
2023-03-21T23:13:16.444Z,11.30
2023-03-21T23:16:04.895Z,11.20
2023-03-21T23:18:55.799Z,11.10
2023-03-21T23:21:44.348Z,11.10
2023-03-21T23:24:30.821Z,11.00
2023-03-21T23:27:18.168Z,11.00
2023-03-21T23:30:06.313Z,11.00
2023-03-21T23:32:53.246Z,10.90
2023-03-21T23:35:41.249Z,11.00
2023-03-21T23:38:28.112Z,10.90
2023-03-21T23:41:16.370Z,10.90
2023-03-21T23:44:03.424Z,10.90
2023-03-21T23:46:51.139Z,10.80
2023-03-21T23:49:39.123Z,10.90
2023-03-21T23:52:27.133Z,10.80
2023-03-21T23:55:27.672Z,10.80
2023-03-21T23:58:14.554Z,10.70
